San Francisco, CA (94101)

1:11 AM PDT on October 01, 2014 (GMT -0700)
NEMA | Change Station
CLOSE
Current Station
Personal Weather Station
Location: San Francisco, CA
Elevation: 102 ft
Nearby Weather Stations

Elev 102 ft 37.78 °N, 122.42 °W | Updated 5 minutes ago

Partly Cloudy
Partly Cloudy
61.2 °F
Feels Like 61.2 °F
N
-
Wind Variable Wind from North

Today
High -- | Low -- °F
--% Chance of Precip.
Yesterday
High -- | Low -- °F
Precip. -- in
7:05 AM 6:52 PM
Waxing Crescent, 45% visible
Pressure 29.85 in
Visibility 10.0 miles
Clouds Clear
Dew Point 55 °F
Humidity 85%
Rainfall -999.00 in
Snow Depth Not available.
UV 0 out of 12
Pollen 2.80 out of 12
Ozone Good
PM2.5 Moderate
Flu Activity Not available.
METAR KSFO 010756Z 28005KT 10SM CLR 17/14 A2985 RMK AO2 SLP108 T01720139 402390167

More Conditions Fewer Conditions

Pressure 29.85 in
Visibility 10.0 miles
Clouds Clear
Dew Point 55 °F
Humidity 85%
Rainfall -999.00 in
Snow Depth Not available.
UV 0 out of 12
Pollen 2.80 out of 12
Ozone Good
PM2.5 Moderate
Flu Activity Not available.
METAR KSFO 010756Z 28005KT 10SM CLR 17/14 A2985 RMK AO2 SLP108 T01720139 402390167

More Conditions Fewer Conditions

10-Day Weather Forecast

Almanac

Astronomy

Oct. 01, 2014 Rise Set
Actual Time 7:05 AM PDT 6:52 PM PDT
Civil Twilight 6:39 AM PDT 7:18 PM PDT
Nautical Twilight 6:08 AM PDT 7:49 PM PDT
Astronomical Twilight 5:38 AM PDT 8:19 PM PDT
Moon 2:06 PM PDT No Moon Set
Length of Visible Light 12h 39m
Length of Day
11h 47m
Tomorrow will be 2m 24s shorter.
Waxing Crescent, 45% of the Moon is Illuminated
Today
Waxing Crescent
Oct 1
First Quarter
Oct 8
Full
Oct 15
Last Quarter
Oct 23
New

Today's Extremes

State Highs State Lows

Community

WunderPhotos

Upload Photos

1,757,902 photos uploaded!

Nearby

Air Quality

  Air Quality AQ Index Pollutant
Yesterday Good
PM2.5
Yesterday Good
OZONE
Current Moderate
PM2.5
Current Good
OZONE
Tuesday Moderate
PM2.5
Wednesday Good
PM2.5
Thursday Moderate
PM2.5
Friday Moderate
PM2.5
Saturday Moderate
PM2.5
Sunday Moderate
PM2.5

Snow Depth

Station Depth Elevation
Blue Lakes 0 in 8000 ft
Independence Lake 0 in 8450 ft
Independence Camp 0 in 7000 ft
Heavenly Valley 0 in 8850 ft
Tahoe City Cross 0 in 6750 ft

Earthquake Activity

City Distance Mag. Time & Date
East Foothills, California 40 miles 2.6 3:34 PM PDT
2014-09-30
South Dos Palos, California 117 miles 2.7 3:08 PM PDT
2014-09-30
South Dos Palos, California 117 miles 2.5 9:18 PM PDT
2014-09-29
American Canyon, California 28 miles 2.5 12:17 AM PDT
2014-09-29
Minimum magnitude displayed is 2.5.

Coastal Water Temperatures

Place Temperature
No Stations Reporting

Nearby Weather Stations